Terminal Aerodrome Forecast
Issued by NWS

Home | Current Version | Previous Version | Text Only | Print | Product List | Glossary On
Versions: 1 2 3 4 5 6 7 8 9 10 11 12 13 14
304
FTUS41 KBTV 282039 AAB
TAFRUT
TAF AMD
KRUT 282039Z 2821/2918 24004KT 6SM -SHRA BR BKN090
     FM282200 VRB03KT P6SM VCSH BKN130
     FM290000 VRB03KT P6SM BKN140
     FM290900 VRB03KT P6SM VCSH OVC060
     FM291600 00000KT 4SM -SHRA BR OVC035
      AMD LTD TO CLD VIS AND WIND=

USA.gov is the U.S. government's official web portal to all federal, state and local government web resources and services.